createdAt,value
2022-09-23T00:00:47.398Z,0.00
2022-09-23T00:01:47.540Z,0.00
2022-09-23T00:02:47.625Z,0.00
2022-09-23T00:03:47.605Z,0.00
2022-09-23T00:04:47.684Z,0.00
2022-09-23T00:05:47.737Z,0.00
2022-09-23T00:06:47.844Z,0.00
2022-09-23T00:07:47.901Z,0.00
2022-09-23T00:08:47.979Z,0.00
2022-09-23T00:09:48.033Z,0.00
2022-09-23T00:10:48.114Z,0.00
2022-09-23T00:11:48.187Z,0.00
2022-09-23T00:12:48.264Z,0.00
2022-09-23T00:13:48.318Z,0.00
2022-09-23T00:14:48.415Z,0.00
2022-09-23T00:15:48.468Z,0.00
2022-09-23T00:16:48.613Z,0.00
2022-09-23T00:17:48.627Z,0.00
2022-09-23T00:18:48.701Z,0.00
2022-09-23T00:19:48.798Z,0.00
2022-09-23T00:20:48.829Z,0.00
2022-09-23T00:21:48.933Z,0.00
2022-09-23T00:22:49.022Z,0.00
2022-09-23T00:23:49.111Z,0.00
2022-09-23T00:24:49.184Z,0.00
2022-09-23T00:25:49.239Z,0.00
2022-09-23T00:26:49.329Z,0.00
2022-09-23T00:27:49.392Z,0.00
2022-09-23T00:28:49.453Z,0.00
2022-09-23T00:29:49.503Z,0.00
2022-09-23T00:30:49.673Z,0.00
2022-09-23T00:31:49.673Z,0.00
2022-09-23T00:32:49.731Z,0.00
2022-09-23T00:33:49.785Z,0.00
2022-09-23T00:34:49.867Z,0.00
2022-09-23T00:35:49.913Z,0.00
2022-09-23T00:36:50.026Z,0.00
2022-09-23T00:37:50.077Z,0.00
2022-09-23T00:38:50.148Z,0.00
2022-09-23T00:39:50.200Z,0.00
2022-09-23T00:40:50.387Z,0.00
2022-09-23T00:41:50.365Z,0.00
2022-09-23T00:42:50.423Z,0.00
2022-09-23T00:43:50.501Z,0.00
2022-09-23T00:44:50.574Z,0.00
2022-09-23T00:45:50.707Z,0.00
2022-09-23T00:46:50.716Z,0.00
2022-09-23T00:47:50.764Z,0.00
2022-09-23T00:48:50.842Z,0.00
2022-09-23T00:49:50.896Z,0.00
2022-09-23T00:50:50.973Z,0.00
2022-09-23T00:51:51.054Z,0.00
2022-09-23T00:52:51.100Z,0.00
2022-09-23T00:53:51.147Z,0.00
2022-09-23T00:54:51.234Z,0.00
2022-09-23T00:55:51.281Z,0.00
2022-09-23T00:56:51.383Z,0.00
2022-09-23T00:57:51.435Z,0.00
2022-09-23T00:58:51.509Z,0.00
2022-09-23T00:59:51.561Z,0.00
2022-09-23T01:00:51.713Z,0.00
2022-09-23T01:01:51.706Z,0.00
2022-09-23T01:02:51.875Z,0.00
2022-09-23T01:03:51.867Z,0.00
2022-09-23T01:04:51.946Z,0.00
2022-09-23T01:05:51.991Z,0.00
2022-09-23T01:06:52.107Z,0.00
2022-09-23T01:07:52.162Z,0.00
2022-09-23T01:08:52.242Z,0.00
2022-09-23T01:09:52.315Z,0.00
2022-09-23T01:10:52.415Z,0.00
2022-09-23T01:11:52.492Z,0.00
2022-09-23T01:12:52.579Z,0.00
2022-09-23T01:13:52.622Z,0.00
2022-09-23T01:14:52.699Z,0.00
2022-09-23T01:15:52.749Z,0.00
2022-09-23T01:16:52.911Z,0.00
2022-09-23T01:17:52.889Z,0.00
2022-09-23T01:18:52.966Z,0.00
2022-09-23T01:19:53.037Z,0.00
2022-09-23T01:20:53.138Z,0.00
2022-09-23T01:21:53.217Z,0.00
2022-09-23T01:22:53.300Z,0.00
2022-09-23T01:23:53.353Z,0.00
2022-09-23T01:24:53.427Z,0.00
2022-09-23T01:25:53.482Z,0.00
2022-09-23T01:26:53.582Z,0.00
2022-09-23T01:27:53.632Z,0.00
2022-09-23T01:28:53.710Z,0.00
2022-09-23T01:29:53.784Z,0.00
2022-09-23T01:30:53.908Z,0.00
2022-09-23T01:31:53.958Z,0.00
2022-09-23T01:32:54.037Z,0.00
2022-09-23T01:33:54.128Z,0.00
2022-09-23T01:34:54.187Z,0.00
2022-09-23T01:35:54.245Z,0.00
2022-09-23T01:36:54.347Z,0.00
2022-09-23T01:37:54.396Z,0.00
2022-09-23T01:38:54.479Z,0.00
2022-09-23T01:39:54.525Z,0.00
2022-09-23T01:40:54.603Z,0.00
2022-09-23T01:41:54.700Z,0.00
2022-09-23T01:42:54.778Z,0.00
2022-09-23T01:43:54.830Z,0.00
2022-09-23T01:44:54.914Z,0.00
2022-09-23T01:45:54.964Z,0.00
2022-09-23T01:46:55.081Z,0.00
2022-09-23T01:47:55.143Z,0.00
2022-09-23T01:48:55.192Z,0.00
2022-09-23T01:49:55.245Z,0.00
2022-09-23T01:50:55.325Z,0.00
2022-09-23T01:51:55.508Z,0.00
2022-09-23T01:52:55.441Z,0.00
2022-09-23T01:53:55.519Z,0.00
2022-09-23T01:54:55.571Z,0.00
2022-09-23T01:55:55.651Z,0.00
2022-09-23T01:56:55.721Z,0.00
2022-09-23T01:57:55.811Z,0.00
2022-09-23T01:58:55.857Z,0.00
2022-09-23T01:59:55.939Z,0.00
2022-09-23T02:00:56.016Z,0.00
2022-09-23T02:01:56.192Z,0.00
2022-09-23T02:02:56.143Z,0.00
2022-09-23T02:03:56.221Z,0.00
2022-09-23T02:04:56.278Z,0.00
2022-09-23T02:05:56.362Z,0.00
2022-09-23T02:06:56.423Z,0.00
2022-09-23T02:07:56.503Z,0.00
2022-09-23T02:08:56.559Z,0.00
2022-09-23T02:09:56.655Z,0.00
2022-09-23T02:10:56.709Z,0.00
2022-09-23T02:11:58.789Z,0.00
2022-09-23T02:12:56.862Z,0.00
2022-09-23T02:13:56.943Z,0.00
2022-09-23T02:14:56.994Z,0.00
2022-09-23T02:15:57.071Z,0.00
2022-09-23T02:16:57.180Z,0.00
2022-09-23T02:17:57.217Z,0.00
2022-09-23T02:18:57.273Z,0.00
2022-09-23T02:19:57.355Z,0.00
2022-09-23T02:20:57.431Z,0.00
2022-09-23T02:21:57.528Z,0.00
2022-09-23T02:22:57.580Z,0.00
2022-09-23T02:23:57.677Z,0.00
2022-09-23T02:24:57.730Z,0.00
2022-09-23T02:25:57.809Z,0.00
2022-09-23T02:26:57.873Z,0.00
2022-09-23T02:27:57.952Z,0.00
2022-09-23T02:28:58.006Z,0.00
2022-09-23T02:29:58.090Z,0.00
2022-09-23T02:30:58.136Z,0.00
2022-09-23T02:31:58.338Z,0.00
2022-09-23T02:32:58.290Z,0.00
2022-09-23T02:33:58.370Z,0.00
2022-09-23T02:34:58.450Z,0.00
2022-09-23T02:35:58.531Z,0.00
2022-09-23T02:36:58.609Z,0.00
2022-09-23T02:37:58.694Z,0.00
2022-09-23T02:38:58.741Z,0.00
2022-09-23T02:39:58.820Z,0.00
2022-09-23T02:40:58.900Z,0.00
2022-09-23T02:42:00.464Z,0.00
2022-09-23T02:42:59.004Z,0.00
2022-09-23T02:43:59.110Z,0.00
2022-09-23T02:44:59.138Z,0.00
2022-09-23T02:45:59.297Z,0.00
2022-09-23T02:46:59.311Z,0.00
2022-09-23T02:47:59.403Z,0.00
2022-09-23T02:48:59.449Z,0.00
2022-09-23T02:49:59.564Z,0.00
2022-09-23T02:50:59.629Z,0.00
2022-09-23T02:51:59.709Z,0.00
2022-09-23T02:52:59.795Z,0.00
2022-09-23T02:53:59.851Z,0.00
2022-09-23T02:54:59.916Z,0.00
2022-09-23T02:56:00.005Z,0.00
2022-09-23T02:57:00.085Z,0.00
2022-09-23T02:58:00.203Z,0.00
2022-09-23T02:59:00.258Z,0.00
2022-09-23T03:00:00.342Z,0.00
2022-09-23T03:01:00.447Z,0.00
2022-09-23T03:02:00.564Z,0.00
2022-09-23T03:03:00.548Z,0.00
2022-09-23T03:04:00.616Z,0.00
2022-09-23T03:05:00.673Z,0.00
2022-09-23T03:06:00.753Z,0.00
2022-09-23T03:07:00.808Z,0.00
2022-09-23T03:08:00.910Z,0.00
2022-09-23T03:09:00.953Z,0.00
2022-09-23T03:10:01.040Z,0.00
2022-09-23T03:11:01.101Z,0.00
2022-09-23T03:12:01.172Z,0.00
2022-09-23T03:13:01.255Z,0.00
2022-09-23T03:14:01.308Z,0.00
2022-09-23T03:15:01.363Z,0.00
2022-09-23T03:16:01.512Z,0.00
2022-09-23T03:17:01.543Z,0.00
2022-09-23T03:18:01.658Z,0.00
2022-09-23T03:19:01.712Z,0.00
2022-09-23T03:20:01.814Z,0.00
2022-09-23T03:21:01.870Z,0.00
2022-09-23T03:22:01.960Z,0.00
2022-09-23T03:23:02.032Z,0.00
2022-09-23T03:24:02.185Z,0.00
2022-09-23T03:25:02.173Z,0.00
2022-09-23T03:26:02.280Z,0.00
2022-09-23T03:27:02.361Z,0.00
2022-09-23T03:28:02.615Z,0.00
2022-09-23T03:29:02.540Z,0.00
2022-09-23T03:30:02.642Z,0.00
2022-09-23T03:31:02.696Z,0.00
2022-09-23T03:32:02.900Z,0.00
2022-09-23T03:33:02.957Z,0.00
2022-09-23T03:34:02.921Z,0.00
2022-09-23T03:35:03.001Z,0.00
2022-09-23T03:36:03.068Z,0.00
2022-09-23T03:37:03.173Z,0.00
2022-09-23T03:38:03.253Z,0.00
2022-09-23T03:39:03.310Z,0.00
2022-09-23T03:40:03.548Z,0.00
2022-09-23T03:41:03.486Z,0.00
2022-09-23T03:42:03.548Z,0.00
2022-09-23T03:43:03.753Z,0.00
2022-09-23T03:44:03.691Z,0.00
2022-09-23T03:45:03.783Z,0.00
2022-09-23T03:46:03.875Z,0.00
2022-09-23T03:47:03.953Z,0.00
2022-09-23T03:48:04.052Z,0.00
2022-09-23T03:49:04.105Z,0.00
2022-09-23T03:50:04.157Z,0.00
2022-09-23T03:51:04.236Z,0.00
2022-09-23T03:52:04.296Z,0.00
2022-09-23T03:53:04.404Z,0.00
2022-09-23T03:54:04.443Z,0.00
2022-09-23T03:55:04.538Z,0.00
2022-09-23T03:56:04.613Z,0.00
2022-09-23T03:57:04.728Z,0.00
2022-09-23T03:58:04.806Z,0.00
2022-09-23T03:59:04.867Z,0.00
2022-09-23T04:00:04.946Z,0.00
2022-09-23T04:01:05.234Z,0.00
2022-09-23T04:02:05.225Z,0.00
2022-09-23T04:03:09.510Z,0.00
2022-09-23T04:04:05.379Z,0.00
2022-09-23T04:05:05.388Z,0.00
2022-09-23T04:06:05.478Z,0.00
2022-09-23T04:07:05.549Z,0.00
2022-09-23T04:08:05.663Z,0.00
2022-09-23T04:09:05.727Z,0.00
2022-09-23T04:10:05.808Z,0.00
2022-09-23T04:11:05.914Z,0.00
2022-09-23T04:12:05.998Z,0.00
2022-09-23T04:13:06.099Z,0.00
2022-09-23T04:14:06.117Z,0.00
2022-09-23T04:15:06.219Z,0.00
2022-09-23T04:16:06.328Z,0.00
2022-09-23T04:17:06.384Z,0.00
2022-09-23T04:18:06.492Z,0.00
2022-09-23T04:19:11.361Z,0.00
2022-09-23T04:20:06.646Z,0.00
2022-09-23T04:21:06.737Z,0.00
2022-09-23T04:22:06.814Z,0.00
2022-09-23T04:23:06.936Z,0.00
2022-09-23T04:24:06.978Z,0.00
2022-09-23T04:25:07.053Z,0.00
2022-09-23T04:26:07.135Z,0.00
2022-09-23T04:27:07.217Z,0.00
2022-09-23T04:28:07.315Z,0.00
2022-09-23T04:29:07.423Z,0.00
2022-09-23T04:30:07.464Z,0.00
2022-09-23T04:31:07.636Z,0.00
2022-09-23T04:32:07.661Z,0.00
2022-09-23T04:33:07.768Z,0.00
2022-09-23T04:34:07.809Z,0.00
2022-09-23T04:35:07.900Z,0.00
2022-09-23T04:36:07.980Z,0.00
2022-09-23T04:37:08.075Z,0.00
2022-09-23T04:38:08.160Z,0.00
2022-09-23T04:39:08.354Z,0.00
2022-09-23T04:40:08.357Z,0.00
2022-09-23T04:41:08.393Z,0.00
2022-09-23T04:42:08.475Z,0.00
2022-09-23T04:43:12.892Z,0.00
2022-09-23T04:44:08.653Z,0.00
2022-09-23T04:45:08.759Z,0.00
2022-09-23T04:46:08.847Z,0.00
2022-09-23T04:47:08.956Z,0.00
2022-09-23T04:48:09.018Z,0.00
2022-09-23T04:49:09.096Z,0.00
2022-09-23T04:50:09.176Z,0.00
2022-09-23T04:51:09.243Z,0.00
2022-09-23T04:52:09.325Z,0.00
2022-09-23T04:53:09.451Z,0.00
2022-09-23T04:54:09.489Z,0.00
2022-09-23T04:55:11.358Z,0.00
2022-09-23T04:56:09.659Z,0.00
2022-09-23T04:57:09.737Z,0.00
2022-09-23T04:58:09.825Z,0.00
2022-09-23T04:59:09.945Z,0.00
2022-09-23T05:00:09.952Z,0.00
2022-09-23T05:01:10.124Z,0.00
2022-09-23T05:02:10.160Z,0.00
2022-09-23T05:03:10.316Z,0.00
2022-09-23T05:04:10.270Z,0.00
2022-09-23T05:05:10.379Z,0.00
2022-09-23T05:06:10.455Z,0.00
2022-09-23T05:07:10.529Z,0.00
2022-09-23T05:08:10.615Z,0.00
2022-09-23T05:09:10.765Z,5.62
2022-09-23T05:10:10.756Z,5.62
2022-09-23T05:11:10.862Z,5.62
2022-09-23T05:12:10.937Z,5.62
2022-09-23T05:13:11.061Z,5.62
2022-09-23T05:14:11.120Z,5.62
2022-09-23T05:15:11.223Z,11.25
2022-09-23T05:16:11.361Z,11.25
2022-09-23T05:17:11.391Z,11.25
2022-09-23T05:18:11.498Z,11.25
2022-09-23T05:19:11.567Z,16.88
2022-09-23T05:20:11.647Z,16.88
2022-09-23T05:21:11.714Z,16.88
2022-09-23T05:22:11.802Z,16.88
2022-09-23T05:23:11.907Z,22.50
2022-09-23T05:24:11.935Z,22.50
2022-09-23T05:25:12.036Z,22.50
2022-09-23T05:26:12.114Z,28.12
2022-09-23T05:27:12.221Z,28.12
2022-09-23T05:28:12.314Z,33.75
2022-09-23T05:29:12.390Z,39.38
2022-09-23T05:30:12.468Z,39.38
2022-09-23T05:31:17.143Z,45.00
2022-09-23T05:32:12.649Z,45.00
2022-09-23T05:33:12.742Z,50.62
2022-09-23T05:34:12.778Z,56.25
2022-09-23T05:35:12.887Z,56.25
2022-09-23T05:36:12.961Z,61.88
2022-09-23T05:37:13.072Z,67.50
2022-09-23T05:38:13.159Z,73.12
2022-09-23T05:39:13.220Z,73.12
2022-09-23T05:40:13.340Z,78.75
2022-09-23T05:41:13.375Z,84.38
2022-09-23T05:42:13.454Z,90.00
2022-09-23T05:43:13.580Z,95.62
2022-09-23T05:44:13.612Z,101.25
2022-09-23T05:45:13.697Z,106.88
2022-09-23T05:46:13.790Z,106.88
2022-09-23T05:47:13.853Z,112.50
2022-09-23T05:48:13.951Z,118.12
2022-09-23T05:49:14.001Z,118.12
2022-09-23T05:50:14.078Z,123.75
2022-09-23T05:51:14.163Z,129.38
2022-09-23T05:52:14.240Z,135.00
2022-09-23T05:53:14.329Z,140.62
2022-09-23T05:54:14.373Z,146.25
2022-09-23T05:55:14.483Z,151.88
2022-09-23T05:56:14.557Z,157.50
2022-09-23T05:57:14.631Z,163.12
2022-09-23T05:58:14.730Z,168.75
2022-09-23T05:59:14.794Z,174.38
2022-09-23T06:00:14.869Z,180.00
2022-09-23T06:01:14.971Z,185.62
2022-09-23T06:02:15.158Z,191.25
2022-09-23T06:03:15.233Z,196.88
2022-09-23T06:04:15.200Z,202.50
2022-09-23T06:05:15.273Z,208.12
2022-09-23T06:06:15.322Z,213.75
2022-09-23T06:07:15.406Z,219.38
2022-09-23T06:08:15.514Z,225.00
2022-09-23T06:09:15.638Z,230.62
2022-09-23T06:10:15.654Z,236.25
2022-09-23T06:11:15.733Z,241.88
2022-09-23T06:12:15.796Z,241.88
2022-09-23T06:13:15.891Z,247.50
2022-09-23T06:14:15.940Z,253.12
2022-09-23T06:15:16.019Z,253.12
2022-09-23T06:16:16.362Z,258.75
2022-09-23T06:17:16.205Z,264.38
2022-09-23T06:18:16.269Z,264.38
2022-09-23T06:19:16.352Z,264.38
2022-09-23T06:20:16.408Z,270.00
2022-09-23T06:21:16.486Z,270.00
2022-09-23T06:22:16.554Z,281.25
2022-09-23T06:23:16.650Z,286.88
2022-09-23T06:24:20.476Z,292.50
2022-09-23T06:25:16.803Z,303.75
2022-09-23T06:26:16.853Z,309.38
2022-09-23T06:27:16.933Z,320.62
2022-09-23T06:28:17.034Z,326.25
2022-09-23T06:29:17.106Z,337.50
2022-09-23T06:30:17.195Z,348.75
2022-09-23T06:31:17.368Z,365.62
2022-09-23T06:32:17.336Z,393.75
2022-09-23T06:33:24.375Z,528.75
2022-09-23T06:34:17.780Z,1321.88
2022-09-23T06:35:26.232Z,1794.38
2022-09-23T06:36:35.291Z,1946.25
2022-09-23T06:37:20.506Z,1878.75
2022-09-23T06:38:17.837Z,1670.62
2022-09-23T06:39:17.922Z,1513.12
2022-09-23T06:40:18.057Z,1316.25
2022-09-23T06:41:18.081Z,1670.62
2022-09-23T06:42:18.154Z,1968.75
2022-09-23T06:43:18.257Z,1895.62
2022-09-23T06:44:18.300Z,1693.12
2022-09-23T06:45:18.391Z,1597.50
2022-09-23T06:46:18.517Z,1670.62
2022-09-23T06:47:18.551Z,1625.62
2022-09-23T06:48:18.652Z,1569.38
2022-09-23T06:49:18.735Z,1501.88
2022-09-23T06:50:18.843Z,1462.50
2022-09-23T06:51:18.895Z,1198.12
2022-09-23T06:52:18.964Z,1260.00
2022-09-23T06:53:19.056Z,1226.25
2022-09-23T06:54:19.096Z,1715.62
2022-09-23T06:55:19.180Z,2058.75
2022-09-23T06:56:19.234Z,2081.25
2022-09-23T06:57:19.305Z,2148.75
2022-09-23T06:58:19.377Z,1968.75
2022-09-23T06:59:19.451Z,2148.75
2022-09-23T07:00:19.512Z,2238.75
2022-09-23T07:01:19.766Z,1974.38
2022-09-23T07:02:19.779Z,2165.62
2022-09-23T07:03:19.765Z,2643.75
2022-09-23T07:04:19.824Z,2970.00
2022-09-23T07:05:19.900Z,2345.62
2022-09-23T07:06:19.988Z,2261.25
2022-09-23T07:07:20.066Z,2418.75
2022-09-23T07:08:20.132Z,2227.50
2022-09-23T07:09:20.211Z,2250.00
2022-09-23T07:10:20.260Z,2300.62
2022-09-23T07:11:20.336Z,2334.38
2022-09-23T07:12:20.426Z,2373.75
2022-09-23T07:13:20.513Z,2446.88
2022-09-23T07:14:20.558Z,2430.00
2022-09-23T07:15:20.633Z,2362.50
2022-09-23T07:16:20.750Z,2345.62
2022-09-23T07:17:20.756Z,2278.12
2022-09-23T07:18:20.897Z,2300.62
2022-09-23T07:19:20.936Z,2531.25
2022-09-23T07:20:21.021Z,2902.50
2022-09-23T07:21:21.096Z,2823.75
2022-09-23T07:22:21.187Z,2598.75
2022-09-23T07:23:21.292Z,2131.88
2022-09-23T07:24:21.334Z,1850.62
2022-09-23T07:25:21.424Z,1951.88
2022-09-23T07:26:21.508Z,2250.00
2022-09-23T07:27:21.603Z,2036.25
2022-09-23T07:28:21.675Z,2514.38
2022-09-23T07:29:21.752Z,2536.88
2022-09-23T07:30:25.450Z,2835.00
2022-09-23T07:31:34.973Z,2835.00
2022-09-23T07:32:22.073Z,2683.12
2022-09-23T07:33:31.673Z,2536.88
2022-09-23T07:34:22.142Z,2458.12
2022-09-23T07:35:22.218Z,2514.38
2022-09-23T07:36:22.268Z,2795.62
2022-09-23T07:37:22.342Z,3082.50
2022-09-23T07:38:22.445Z,3200.62
2022-09-23T07:39:22.500Z,3307.50
2022-09-23T07:40:22.641Z,3262.50
2022-09-23T07:41:22.668Z,3093.75
2022-09-23T07:42:22.748Z,3110.62
2022-09-23T07:43:22.868Z,3510.00
2022-09-23T07:44:22.927Z,2958.75
2022-09-23T07:45:22.999Z,3020.62
2022-09-23T07:46:23.131Z,3009.38
2022-09-23T07:47:23.179Z,2733.75
2022-09-23T07:48:23.284Z,2863.12
2022-09-23T07:49:23.356Z,2761.88
2022-09-23T07:50:23.473Z,2576.25
2022-09-23T07:51:23.514Z,2795.62
2022-09-23T07:52:23.598Z,2908.12
2022-09-23T07:53:23.666Z,3138.75
2022-09-23T07:54:23.749Z,2514.38
2022-09-23T07:55:23.805Z,2295.00
2022-09-23T07:56:23.887Z,2115.00
2022-09-23T07:57:23.944Z,2486.25
2022-09-23T07:58:24.039Z,2638.12
2022-09-23T07:59:24.096Z,2480.62
2022-09-23T08:00:24.181Z,2334.38
2022-09-23T08:01:24.289Z,2328.75
2022-09-23T08:02:24.362Z,2148.75
2022-09-23T08:03:24.392Z,2334.38
2022-09-23T08:04:24.474Z,2334.38
2022-09-23T08:05:24.531Z,2300.62
2022-09-23T08:06:24.611Z,2418.75
2022-09-23T08:07:24.675Z,2323.12
2022-09-23T08:08:24.776Z,2255.62
2022-09-23T08:09:24.838Z,2300.62
2022-09-23T08:10:24.911Z,1963.12
2022-09-23T08:11:24.961Z,1906.88
2022-09-23T08:12:25.042Z,2013.75
2022-09-23T08:13:25.115Z,1985.62
2022-09-23T08:14:25.198Z,2109.38
2022-09-23T08:15:25.249Z,2109.38
2022-09-23T08:16:25.442Z,2137.50
2022-09-23T08:17:25.387Z,2306.25
2022-09-23T08:18:25.503Z,2182.50
2022-09-23T08:19:25.556Z,2362.50
2022-09-23T08:20:25.636Z,2154.38
2022-09-23T08:21:25.713Z,2013.75
2022-09-23T08:22:25.796Z,2188.12
2022-09-23T08:23:25.871Z,2137.50
2022-09-23T08:24:25.952Z,1985.62
2022-09-23T08:25:26.006Z,1980.00
2022-09-23T08:26:26.081Z,1299.38
2022-09-23T08:27:26.136Z,1260.00
2022-09-23T08:28:26.249Z,1614.38
2022-09-23T08:29:26.394Z,1130.62
2022-09-23T08:30:26.399Z,1175.62
2022-09-23T08:31:26.518Z,1125.00
2022-09-23T08:32:26.534Z,1158.75
2022-09-23T08:33:26.622Z,1130.62
2022-09-23T08:34:26.709Z,1181.25
2022-09-23T08:35:26.778Z,1271.25
2022-09-23T08:36:26.859Z,1310.62
2022-09-23T08:37:26.915Z,1141.88
2022-09-23T08:38:28.687Z,1158.75
2022-09-23T08:39:27.137Z,1186.88
2022-09-23T08:40:27.197Z,1198.12
2022-09-23T08:41:27.255Z,1108.12
2022-09-23T08:42:27.333Z,1035.00
2022-09-23T08:43:27.392Z,1006.88
2022-09-23T08:44:27.495Z,922.50
2022-09-23T08:45:27.533Z,883.12
2022-09-23T08:46:27.638Z,855.00
2022-09-23T08:47:27.677Z,832.50
2022-09-23T08:48:27.762Z,793.12
2022-09-23T08:49:27.832Z,759.38
2022-09-23T08:50:27.920Z,748.12
2022-09-23T08:51:28.004Z,770.62
2022-09-23T08:52:28.090Z,759.38
2022-09-23T08:53:28.152Z,748.12
2022-09-23T08:54:28.262Z,753.75
2022-09-23T08:55:28.322Z,770.62
2022-09-23T08:56:28.408Z,787.50
2022-09-23T08:57:28.478Z,765.00
2022-09-23T08:58:28.573Z,770.62
2022-09-23T08:59:28.660Z,759.38
2022-09-23T09:00:28.706Z,753.75
2022-09-23T09:01:28.807Z,781.88
2022-09-23T09:02:28.923Z,810.00
2022-09-23T09:03:28.958Z,798.75
2022-09-23T09:04:29.077Z,759.38
2022-09-23T09:05:29.137Z,804.38
2022-09-23T09:06:29.240Z,905.62
2022-09-23T09:07:36.700Z,950.62
2022-09-23T09:08:29.394Z,961.88
2022-09-23T09:09:29.486Z,973.12
2022-09-23T09:10:29.537Z,877.50
2022-09-23T09:11:29.599Z,776.25
2022-09-23T09:12:29.692Z,736.88
2022-09-23T09:13:29.760Z,731.25
2022-09-23T09:14:29.862Z,753.75
2022-09-23T09:15:29.996Z,753.75
2022-09-23T09:16:55.669Z,742.50
2022-09-23T09:17:34.376Z,753.75
2022-09-23T09:18:30.181Z,832.50
2022-09-23T09:19:30.275Z,838.12
2022-09-23T09:20:30.372Z,888.75
2022-09-23T09:21:30.436Z,849.38
2022-09-23T09:22:30.560Z,838.12
2022-09-23T09:23:30.603Z,821.25
2022-09-23T09:24:30.715Z,866.25
2022-09-23T09:25:33.553Z,787.50
2022-09-23T09:26:30.860Z,821.25
2022-09-23T09:27:30.926Z,860.62
2022-09-23T09:28:31.108Z,894.38
2022-09-23T09:29:35.530Z,1046.25
2022-09-23T09:30:31.163Z,978.75
2022-09-23T09:31:31.365Z,928.12
2022-09-23T09:32:31.320Z,900.00
2022-09-23T09:33:31.413Z,922.50
2022-09-23T09:34:31.518Z,984.38
2022-09-23T09:35:31.543Z,956.25
2022-09-23T09:36:31.620Z,1209.38
2022-09-23T09:37:31.893Z,1237.50
2022-09-23T09:38:31.771Z,1546.88
2022-09-23T09:39:31.869Z,1507.50
2022-09-23T09:40:31.992Z,1355.62
2022-09-23T09:41:32.001Z,1316.25
2022-09-23T09:42:32.074Z,1293.75
2022-09-23T09:43:32.585Z,1260.00
2022-09-23T09:44:32.257Z,1170.00
2022-09-23T09:45:33.573Z,1108.12
2022-09-23T09:46:32.456Z,1006.88
2022-09-23T09:47:32.456Z,900.00
2022-09-23T09:48:32.526Z,826.88
2022-09-23T09:49:36.755Z,826.88
2022-09-23T09:50:32.710Z,815.62
2022-09-23T09:51:32.790Z,888.75
2022-09-23T09:52:32.863Z,973.12
2022-09-23T09:53:32.896Z,967.50
2022-09-23T09:54:32.986Z,1153.12
2022-09-23T09:55:33.028Z,1215.00
2022-09-23T09:56:33.230Z,1305.00
2022-09-23T09:57:35.831Z,1490.62
2022-09-23T09:58:33.227Z,1355.62
2022-09-23T09:59:33.301Z,1305.00
2022-09-23T10:00:33.359Z,1732.50
2022-09-23T10:01:33.514Z,1597.50
2022-09-23T10:02:33.530Z,1653.75
2022-09-23T10:03:33.619Z,1681.88
2022-09-23T10:04:33.824Z,1749.38
2022-09-23T10:05:33.763Z,1760.62
2022-09-23T10:06:33.856Z,1766.25
2022-09-23T10:07:33.926Z,1726.88
2022-09-23T10:08:34.003Z,1260.00
2022-09-23T10:09:34.153Z,1344.38
2022-09-23T10:10:34.179Z,1293.75
2022-09-23T10:11:34.249Z,1198.12
2022-09-23T10:12:34.327Z,1085.62
2022-09-23T10:13:34.413Z,905.62
2022-09-23T10:14:34.517Z,855.00
2022-09-23T10:15:34.561Z,877.50
2022-09-23T10:16:34.718Z,855.00
2022-09-23T10:17:34.719Z,838.12
2022-09-23T10:18:34.799Z,860.62
2022-09-23T10:19:34.871Z,810.00
2022-09-23T10:20:34.928Z,821.25
2022-09-23T10:21:35.007Z,821.25
2022-09-23T10:22:35.083Z,877.50
2022-09-23T10:23:35.138Z,922.50
2022-09-23T10:24:35.250Z,900.00
2022-09-23T10:25:35.294Z,871.88
2022-09-23T10:26:35.394Z,843.75
2022-09-23T10:27:35.474Z,877.50
2022-09-23T10:28:35.546Z,866.25
2022-09-23T10:29:35.649Z,877.50
2022-09-23T10:30:35.797Z,877.50
2022-09-23T10:31:35.809Z,849.38
2022-09-23T10:32:35.877Z,860.62
2022-09-23T10:33:35.954Z,871.88
2022-09-23T10:34:36.048Z,888.75
2022-09-23T10:35:36.093Z,900.00
2022-09-23T10:36:36.168Z,877.50
2022-09-23T10:37:36.282Z,855.00
2022-09-23T10:38:36.358Z,838.12
2022-09-23T10:39:36.455Z,815.62
2022-09-23T10:40:36.639Z,770.62
2022-09-23T10:41:36.631Z,742.50
2022-09-23T10:42:36.710Z,731.25
2022-09-23T10:43:36.798Z,725.62
2022-09-23T10:44:36.894Z,720.00
2022-09-23T10:45:39.724Z,708.75
2022-09-23T10:46:37.081Z,708.75
2022-09-23T10:47:37.091Z,703.12
2022-09-23T10:48:37.186Z,697.50
2022-09-23T10:49:37.289Z,691.88
2022-09-23T10:50:37.342Z,680.62
2022-09-23T10:51:37.426Z,675.00
2022-09-23T10:52:37.500Z,675.00
2022-09-23T10:53:37.582Z,680.62
2022-09-23T10:54:37.672Z,686.25
2022-09-23T10:55:37.765Z,697.50
2022-09-23T10:56:37.836Z,703.12
2022-09-23T10:57:37.918Z,703.12
2022-09-23T10:58:37.995Z,703.12
2022-09-23T10:59:38.094Z,686.25
2022-09-23T11:00:38.172Z,686.25
2022-09-23T11:01:38.390Z,691.88
2022-09-23T11:02:38.331Z,686.25
2022-09-23T11:03:38.417Z,691.88
2022-09-23T11:04:38.559Z,691.88
2022-09-23T11:05:38.576Z,680.62
2022-09-23T11:06:38.649Z,669.38
2022-09-23T11:07:38.721Z,658.12
2022-09-23T11:08:38.800Z,646.88
2022-09-23T11:09:38.886Z,652.50
2022-09-23T11:10:45.930Z,641.25
2022-09-23T11:11:39.043Z,635.62
2022-09-23T11:12:39.123Z,630.00
2022-09-23T11:13:39.196Z,624.38
2022-09-23T11:14:39.288Z,624.38
2022-09-23T11:15:39.329Z,613.12
2022-09-23T11:16:39.452Z,613.12
2022-09-23T11:17:39.477Z,613.12
2022-09-23T11:18:39.556Z,613.12
2022-09-23T11:19:44.745Z,618.75
2022-09-23T11:20:39.708Z,624.38
2022-09-23T11:21:39.738Z,624.38
2022-09-23T11:22:39.834Z,618.75
2022-09-23T11:23:39.932Z,624.38
2022-09-23T11:24:40.016Z,624.38
2022-09-23T11:25:40.059Z,635.62
2022-09-23T11:26:40.156Z,635.62
2022-09-23T11:27:40.241Z,635.62
2022-09-23T11:28:40.355Z,630.00
2022-09-23T11:29:40.454Z,624.38
2022-09-23T11:30:40.582Z,624.38
2022-09-23T11:31:40.606Z,630.00
2022-09-23T11:32:40.677Z,630.00
2022-09-23T11:33:40.762Z,630.00
2022-09-23T11:34:40.855Z,624.38
2022-09-23T11:35:40.897Z,618.75
2022-09-23T11:36:40.968Z,607.50
2022-09-23T11:37:41.052Z,607.50
2022-09-23T11:38:41.143Z,590.62
2022-09-23T11:39:41.224Z,579.38
2022-09-23T11:40:45.633Z,568.12
2022-09-23T11:41:41.361Z,556.88
2022-09-23T11:42:41.454Z,545.62
2022-09-23T11:43:41.537Z,545.62
2022-09-23T11:44:41.644Z,540.00
2022-09-23T11:45:41.759Z,540.00
2022-09-23T11:46:41.755Z,540.00
2022-09-23T11:47:41.841Z,545.62
2022-09-23T11:48:41.918Z,562.50
2022-09-23T11:49:42.012Z,573.75
2022-09-23T11:50:42.090Z,590.62
2022-09-23T11:51:42.178Z,596.25
2022-09-23T11:52:42.274Z,613.12
2022-09-23T11:53:42.362Z,624.38
2022-09-23T11:54:42.448Z,635.62
2022-09-23T11:55:52.589Z,630.00
2022-09-23T11:56:46.533Z,635.62
2022-09-23T11:57:49.164Z,652.50
2022-09-23T11:58:45.828Z,658.12
2022-09-23T11:59:42.833Z,646.88
2022-09-23T12:00:46.613Z,641.25
2022-09-23T12:01:45.585Z,630.00
2022-09-23T12:02:43.593Z,630.00
2022-09-23T12:03:44.892Z,624.38
2022-09-23T12:04:54.867Z,618.75
2022-09-23T12:05:43.362Z,618.75
2022-09-23T12:06:43.305Z,618.75
2022-09-23T12:07:43.378Z,613.12
2022-09-23T12:08:43.462Z,601.88
2022-09-23T12:09:59.061Z,607.50
2022-09-23T12:10:43.632Z,596.25
2022-09-23T12:11:43.707Z,590.62
2022-09-23T12:12:43.793Z,590.62
2022-09-23T12:13:43.867Z,585.00
2022-09-23T12:14:43.961Z,585.00
2022-09-23T12:15:44.033Z,573.75
2022-09-23T12:16:44.157Z,568.12
2022-09-23T12:17:44.199Z,568.12
2022-09-23T12:18:44.278Z,562.50
2022-09-23T12:19:44.378Z,556.88
2022-09-23T12:20:44.429Z,556.88
2022-09-23T12:21:50.637Z,551.25
2022-09-23T12:22:44.565Z,551.25
2022-09-23T12:23:44.646Z,562.50
2022-09-23T12:24:44.759Z,573.75
2022-09-23T12:25:44.831Z,590.62
2022-09-23T12:26:44.920Z,596.25
2022-09-23T12:27:44.999Z,607.50
2022-09-23T12:28:45.045Z,607.50
2022-09-23T12:29:45.165Z,618.75
2022-09-23T12:30:45.263Z,618.75
2022-09-23T12:31:46.778Z,618.75
2022-09-23T12:32:45.423Z,618.75
2022-09-23T12:33:45.495Z,618.75
2022-09-23T12:34:45.602Z,618.75
2022-09-23T12:35:45.649Z,607.50
2022-09-23T12:36:45.734Z,596.25
2022-09-23T12:37:45.809Z,585.00
2022-09-23T12:38:45.877Z,573.75
2022-09-23T12:39:45.981Z,568.12
2022-09-23T12:40:46.040Z,562.50
2022-09-23T12:41:46.112Z,556.88
2022-09-23T12:42:46.197Z,545.62
2022-09-23T12:43:46.304Z,540.00
2022-09-23T12:44:46.409Z,528.75
2022-09-23T12:45:46.540Z,517.50